createdAt,value
2023-11-30T09:58:33.782Z,1.90
2023-11-30T10:03:21.411Z,1.60
2023-11-30T10:08:14.962Z,1.60
2023-11-30T10:13:08.150Z,1.70
2023-11-30T10:17:59.353Z,1.50
2023-11-30T10:22:52.539Z,1.70
2023-11-30T10:27:44.116Z,1.70
2023-11-30T10:32:39.198Z,1.70
2023-11-30T10:37:32.730Z,1.60
2023-11-30T10:42:21.357Z,1.60
2023-11-30T10:47:17.231Z,1.60
2023-11-30T10:52:07.970Z,1.50
2023-11-30T10:56:59.091Z,1.50
2023-11-30T11:01:54.668Z,1.70
2023-11-30T11:06:52.917Z,1.60
2023-11-30T11:11:43.721Z,1.60
2023-11-30T11:16:38.710Z,1.60
2023-11-30T11:21:32.622Z,1.90
2023-11-30T11:26:25.526Z,2.10
2023-11-30T11:31:14.809Z,2.20
2023-11-30T11:36:11.620Z,2.30
2023-11-30T11:40:59.187Z,2.60
2023-11-30T11:45:50.747Z,2.70
2023-11-30T11:50:41.313Z,3.00
2023-11-30T11:55:39.617Z,3.00
2023-11-30T12:00:27.204Z,2.90
2023-11-30T12:05:18.523Z,3.00
2023-11-30T12:10:11.350Z,3.20
2023-11-30T12:15:08.655Z,3.30
2023-11-30T12:19:55.771Z,3.30
2023-11-30T12:24:47.368Z,3.40
2023-11-30T12:29:37.899Z,3.50
2023-11-30T12:34:32.501Z,3.60
2023-11-30T12:39:20.057Z,3.60
2023-11-30T12:44:13.810Z,3.70
2023-11-30T12:49:04.471Z,3.70
2023-11-30T12:53:58.622Z,3.90
2023-11-30T12:58:51.079Z,4.00
2023-11-30T13:03:42.675Z,4.20
2023-11-30T13:08:35.606Z,4.20
2023-11-30T13:13:34.156Z,4.30
2023-11-30T13:18:17.757Z,4.50
2023-11-30T13:23:08.696Z,4.10
2023-11-30T13:28:00.265Z,4.10
2023-11-30T13:32:51.253Z,3.90
2023-11-30T13:37:42.315Z,3.10
2023-11-30T13:42:33.024Z,2.90
2023-11-30T13:47:29.738Z,2.70
2023-11-30T13:52:19.735Z,2.40
2023-11-30T13:57:13.589Z,2.30
2023-11-30T14:02:04.196Z,2.00
2023-11-30T14:06:58.599Z,1.90
2023-11-30T14:11:46.277Z,1.80
2023-11-30T14:16:40.158Z,1.90
2023-11-30T14:21:33.467Z,1.80
2023-11-30T14:26:30.470Z,1.80
2023-11-30T14:31:15.179Z,1.60
2023-11-30T14:36:06.677Z,1.70
2023-11-30T14:40:57.271Z,1.70
2023-11-30T14:45:49.098Z,1.70
2023-11-30T14:50:39.761Z,1.70
2023-11-30T14:55:33.603Z,1.70
2023-11-30T15:00:24.190Z,1.60
2023-11-30T15:05:15.930Z,1.70
2023-11-30T15:10:06.279Z,1.60
2023-11-30T15:14:58.003Z,1.60
2023-11-30T15:19:48.416Z,1.50
2023-11-30T15:24:40.105Z,1.50
2023-11-30T15:29:32.781Z,1.50
2023-11-30T15:34:24.365Z,1.50
2023-11-30T15:39:17.370Z,1.60
2023-11-30T15:44:08.747Z,1.50
2023-11-30T15:49:01.958Z,1.40
2023-11-30T15:53:53.275Z,1.40
2023-11-30T15:58:43.780Z,1.50
2023-11-30T16:03:35.249Z,1.50
2023-11-30T16:08:26.274Z,1.30
2023-11-30T16:13:16.964Z,1.40
2023-11-30T16:18:08.432Z,1.30
2023-11-30T16:22:59.556Z,1.30
2023-11-30T16:27:52.487Z,1.30
2023-11-30T16:32:45.780Z,1.30
2023-11-30T16:37:39.599Z,1.20
2023-11-30T16:42:32.409Z,1.10
2023-11-30T16:47:24.029Z,1.10
2023-11-30T16:52:16.800Z,1.00
2023-11-30T16:57:08.648Z,1.00
2023-11-30T17:02:01.328Z,0.90
2023-11-30T17:06:55.168Z,0.80
2023-11-30T17:11:45.627Z,0.80
2023-11-30T17:16:37.722Z,0.80
2023-11-30T17:21:27.776Z,0.70
2023-11-30T17:26:19.319Z,0.80
2023-11-30T17:31:12.145Z,0.80
2023-11-30T17:36:03.702Z,0.90
2023-11-30T17:40:54.337Z,1.00
2023-11-30T17:45:48.131Z,1.00
2023-11-30T17:50:40.955Z,1.00
2023-11-30T17:55:34.784Z,1.00
2023-11-30T18:00:26.678Z,1.00
2023-11-30T18:05:16.909Z,0.90
2023-11-30T18:10:07.508Z,0.90
2023-11-30T18:14:59.060Z,0.70
2023-11-30T18:19:49.635Z,0.80
2023-11-30T18:24:41.226Z,0.70
2023-11-30T18:29:31.774Z,0.60
2023-11-30T18:34:23.349Z,0.60
2023-11-30T18:39:13.907Z,0.40
2023-11-30T18:44:10.020Z,0.50
2023-11-30T18:49:05.015Z,0.40
2023-11-30T18:53:54.241Z,0.40
2023-11-30T18:58:47.727Z,0.00
2023-11-30T19:03:38.690Z,0.30
2023-11-30T19:08:31.588Z,0.20
2023-11-30T19:13:27.485Z,0.20
2023-11-30T19:18:18.369Z,0.20
2023-11-30T19:23:11.945Z,0.20
2023-11-30T19:28:05.030Z,0.30
2023-11-30T19:32:58.721Z,0.30
2023-11-30T19:37:49.380Z,0.20
2023-11-30T19:42:40.472Z,0.20
2023-11-30T19:47:31.567Z,0.20
2023-11-30T19:52:22.801Z,0.20
2023-11-30T19:57:16.074Z,0.30
2023-11-30T20:02:07.700Z,0.40
2023-11-30T20:07:00.500Z,0.40
2023-11-30T20:11:51.909Z,0.40
2023-11-30T20:16:42.697Z,0.50
2023-11-30T20:21:34.195Z,0.60
2023-11-30T20:26:24.780Z,0.60
2023-11-30T20:31:15.961Z,0.70
2023-11-30T20:36:06.928Z,0.70
2023-11-30T20:40:58.256Z,0.80
2023-11-30T20:45:49.061Z,0.80
2023-11-30T20:50:40.532Z,0.80
2023-11-30T20:55:31.448Z,0.70
2023-11-30T21:00:22.893Z,0.70
2023-11-30T21:05:18.090Z,0.60
2023-11-30T21:10:09.284Z,0.60
2023-11-30T21:15:00.321Z,0.60
2023-11-30T21:19:51.808Z,0.50
2023-11-30T21:24:42.729Z,0.60
2023-11-30T21:29:36.033Z,0.70
2023-11-30T21:34:27.057Z,0.70
2023-11-30T21:39:18.606Z,0.70
2023-11-30T21:44:09.223Z,0.70
2023-11-30T21:49:00.636Z,0.70
2023-11-30T21:53:51.325Z,0.50
2023-11-30T21:58:42.786Z,0.50
2023-11-30T22:03:35.772Z,0.60
2023-11-30T22:08:27.174Z,0.60
2023-11-30T22:13:17.895Z,0.60
2023-11-30T22:18:09.489Z,0.60
2023-11-30T22:23:00.040Z,0.80
2023-11-30T22:27:51.728Z,0.80
2023-11-30T22:32:46.694Z,0.70
2023-11-30T22:37:38.195Z,0.90
2023-11-30T22:42:29.213Z,0.80
2023-11-30T22:47:19.974Z,0.80
2023-11-30T22:52:13.241Z,0.80
2023-11-30T22:57:04.755Z,0.80
2023-11-30T23:01:55.438Z,0.90
2023-11-30T23:06:49.225Z,0.80
2023-11-30T23:11:39.898Z,0.90
2023-11-30T23:16:31.307Z,0.90
2023-11-30T23:21:22.006Z,0.90
2023-11-30T23:26:13.501Z,0.90
2023-11-30T23:31:04.152Z,0.80
2023-11-30T23:35:55.584Z,0.90
2023-11-30T23:40:46.679Z,0.90
2023-11-30T23:45:42.316Z,0.80
2023-11-30T23:50:32.942Z,0.80
2023-11-30T23:55:24.399Z,0.90
